Time;durP1;ratioP1;P1;durP2;ratioP2;P2;SDS_P1;SDS_P2;PMS_P1;PMS_P2;Temp;Humidity;BMP_temperature;BMP_pressure;BME280_temperature;BME280_humidity;BME280_pressure;Samples;Min_cycle;Max_cycle;Signal;HPM_P1;HPM_P2
2023/10/27 00:01:58;;;;;;;;;;;10.30;99.90;;;;;;5165185;27;19930;-41
2023/10/27 00:04:23;;;;;;;;;;;10.30;99.90;;;;;;5183588;27;19929;-41
2023/10/27 00:06:49;;;;;;;;;;;10.30;99.90;;;;;;5183391;27;19923;-41
2023/10/27 00:09:14;;;;;;;;;;;10.30;99.90;;;;;;5183454;27;20017;-41
2023/10/27 00:11:40;;;;;;;;;;;10.30;99.90;;;;;;5183379;27;19923;-41
2023/10/27 00:14:05;;;;;;;;;;;10.30;99.90;;;;;;5183313;27;20280;-41
2023/10/27 00:16:32;;;;;;;;;;;10.30;99.90;;;;;;5183487;27;19923;-41
2023/10/27 00:18:57;;;;;;;;;;;10.30;99.90;;;;;;5183439;27;19923;-41
2023/10/27 00:21:23;;;;;;;;;;;10.30;99.90;;;;;;5183402;27;19929;-41
2023/10/27 00:23:49;;;;;;;;;;;10.30;99.90;;;;;;5183231;27;19981;-41
2023/10/27 00:26:14;;;;;;;;;;;10.30;99.90;;;;;;5183193;27;19930;-42
2023/10/27 00:28:40;;;;;;;;;;;10.30;99.90;;;;;;5183238;27;19923;-41
2023/10/27 00:31:05;;;;;;;;;;;10.30;99.90;;;;;;5183311;27;19922;-41
2023/10/27 00:33:31;;;;;;;;;;;10.30;99.90;;;;;;5183424;27;19923;-41
2023/10/27 00:35:56;;;;;;;;;;;10.30;99.90;;;;;;5183605;27;20418;-41
2023/10/27 00:38:22;;;;;;;;;;;10.30;99.90;;;;;;5164835;27;19922;-41
2023/10/27 00:40:48;;;;;;;;;;;10.30;99.90;;;;;;5183076;27;20009;-41
2023/10/27 00:43:17;;;;;;;;;;;10.30;99.90;;;;;;5182978;27;20442;-41
2023/10/27 00:45:45;;;;;;;;;;;10.30;99.90;;;;;;5183125;27;20391;-41
2023/10/27 00:48:11;;;;;;;;;;;10.30;99.90;;;;;;5183066;27;20373;-41
2023/10/27 00:50:37;;;;;;;;;;;10.30;99.90;;;;;;5183251;27;19922;-41
2023/10/27 00:53:02;;;;;;;;;;;10.30;99.90;;;;;;5183058;27;20386;-41
2023/10/27 00:55:28;;;;;;;;;;;10.30;99.90;;;;;;5183266;27;19922;-41
2023/10/27 00:57:55;;;;;;;;;;;10.30;99.90;;;;;;5182935;27;19922;-41
2023/10/27 01:00:21;;;;;;;;;;;10.30;99.90;;;;;;5182787;27;19923;-41
2023/10/27 01:02:46;;;;;;;;;;;10.30;99.90;;;;;;5182921;27;20000;-41
2023/10/27 01:05:12;;;;;;;;;;;10.30;99.90;;;;;;5182407;27;19923;-41
2023/10/27 01:07:38;;;;;;;;;;;10.30;99.90;;;;;;5179084;27;20377;-41
2023/10/27 01:10:04;;;;;;;;;;;10.30;99.90;;;;;;5179446;27;19922;-41
2023/10/27 01:12:29;;;;;;;;;;;10.30;99.90;;;;;;5179373;27;19922;-42
2023/10/27 01:14:55;;;;;;;;;;;10.30;99.90;;;;;;5179295;27;19977;-41
2023/10/27 01:17:20;;;;;;;;;;;10.30;99.90;;;;;;5179481;27;19923;-41
2023/10/27 01:19:46;;;;;;;;;;;10.20;99.90;;;;;;5179449;27;19927;-41
2023/10/27 01:22:15;;;;;;;;;;;10.30;99.90;;;;;;5179643;27;20010;-41
2023/10/27 01:24:41;;;;;;;;;;;10.20;99.90;;;;;;5179090;27;20400;-41
2023/10/27 01:27:06;;;;;;;;;;;10.20;99.90;;;;;;5179181;27;19926;-42
2023/10/27 01:29:32;;;;;;;;;;;10.20;99.90;;;;;;5179557;27;20017;-41
2023/10/27 01:31:57;;;;;;;;;;;10.20;99.90;;;;;;5179119;27;19923;-41
2023/10/27 01:34:23;;;;;;;;;;;10.20;99.90;;;;;;5179648;27;20385;-40
2023/10/27 01:36:48;;;;;;;;;;;10.20;99.90;;;;;;5179100;27;19926;-41
2023/10/27 01:39:14;;;;;;;;;;;10.10;99.90;;;;;;5178821;27;19929;-41
2023/10/27 01:41:40;;;;;;;;;;;10.20;99.90;;;;;;5160197;27;19922;-41
2023/10/27 01:44:05;;;;;;;;;;;10.20;99.90;;;;;;5178728;27;19926;-41
2023/10/27 01:46:31;;;;;;;;;;;10.20;99.90;;;;;;5178902;27;19923;-42
2023/10/27 01:48:56;;;;;;;;;;;10.20;99.90;;;;;;5178924;27;20066;-41
2023/10/27 01:51:22;;;;;;;;;;;10.10;99.90;;;;;;5178658;27;19968;-41
2023/10/27 01:53:48;;;;;;;;;;;10.10;99.90;;;;;;5178569;27;19923;-41
2023/10/27 01:56:14;;;;;;;;;;;10.10;99.90;;;;;;5178422;27;19923;-41
2023/10/27 01:58:44;;;;;;;;;;;10.20;99.90;;;;;;5178465;27;20426;-41
2023/10/27 02:01:09;;;;;;;;;;;10.20;99.90;;;;;;5178636;27;19969;-41
2023/10/27 02:03:35;;;;;;;;;;;10.10;99.90;;;;;;5178556;27;19970;-42
2023/10/27 02:06:00;;;;;;;;;;;10.10;99.90;;;;;;5178595;27;19923;-41
2023/10/27 02:08:26;;;;;;;;;;;10.20;99.90;;;;;;5178538;27;19926;-41
2023/10/27 02:10:52;;;;;;;;;;;10.10;99.90;;;;;;5160033;27;19959;-42
2023/10/27 02:13:17;;;;;;;;;;;10.10;99.90;;;;;;5178757;27;19923;-43
2023/10/27 02:15:43;;;;;;;;;;;10.10;99.90;;;;;;5142795;27;20016;-41
2023/10/27 02:18:08;;;;;;;;;;;10.20;99.90;;;;;;5176912;27;20266;-41
2023/10/27 02:20:35;;;;;;;;;;;10.10;99.90;;;;;;5178241;27;19922;-41
2023/10/27 02:23:01;;;;;;;;;;;10.10;99.90;;;;;;5159862;27;19923;-41
2023/10/27 02:25:26;;;;;;;;;;;10.10;99.90;;;;;;5177967;27;19930;-41
2023/10/27 02:27:52;;;;;;;;;;;10.10;99.90;;;;;;5159713;27;19977;-41
2023/10/27 02:30:18;;;;;;;;;;;10.10;99.90;;;;;;5178013;27;19923;-41
2023/10/27 02:32:43;;;;;;;;;;;10.10;99.90;;;;;;5177858;27;20282;-41
2023/10/27 02:35:09;;;;;;;;;;;10.10;99.90;;;;;;5177914;27;19923;-41
2023/10/27 02:37:34;;;;;;;;;;;10.10;99.90;;;;;;5177769;27;19927;-41
2023/10/27 02:40:00;;;;;;;;;;;10.10;99.90;;;;;;5177824;27;19958;-41
2023/10/27 02:42:25;;;;;;;;;;;10.10;99.90;;;;;;5177509;27;19995;-41
2023/10/27 02:44:51;;;;;;;;;;;10.10;99.90;;;;;;5178035;27;19922;-41
2023/10/27 02:47:16;;;;;;;;;;;10.10;99.90;;;;;;5177903;27;20322;-41
2023/10/27 02:49:42;;;;;;;;;;;10.10;99.90;;;;;;5177650;27;19945;-41
2023/10/27 02:52:08;;;;;;;;;;;10.10;99.90;;;;;;5177411;27;19929;-41
2023/10/27 02:54:34;;;;;;;;;;;10.10;99.90;;;;;;5177491;27;19930;-41
2023/10/27 02:56:59;;;;;;;;;;;10.10;99.90;;;;;;5177471;27;19926;-41
2023/10/27 02:59:25;;;;;;;;;;;10.10;99.90;;;;;;5177488;27;20417;-41
2023/10/27 03:01:52;;;;;;;;;;;10.10;99.90;;;;;;5177421;27;19945;-41
2023/10/27 03:04:19;;;;;;;;;;;10.10;99.90;;;;;;5158620;27;20365;-41
2023/10/27 03:06:44;;;;;;;;;;;10.10;99.90;;;;;;5177436;27;19926;-41
2023/10/27 03:09:10;;;;;;;;;;;10.10;99.90;;;;;;5177261;27;20273;-41
2023/10/27 03:11:35;;;;;;;;;;;10.10;99.90;;;;;;5176907;27;19980;-41
2023/10/27 03:14:01;;;;;;;;;;;10.10;99.90;;;;;;5177456;27;19975;-41
2023/10/27 03:16:27;;;;;;;;;;;10.10;99.90;;;;;;5177378;27;19967;-41
2023/10/27 03:18:53;;;;;;;;;;;10.10;99.90;;;;;;5177215;27;19976;-41
2023/10/27 03:21:19;;;;;;;;;;;10.10;99.90;;;;;;5177088;27;19923;-41
2023/10/27 03:23:44;;;;;;;;;;;10.10;99.90;;;;;;5177000;27;19923;-41
2023/10/27 03:26:10;;;;;;;;;;;10.10;99.90;;;;;;5176923;27;19929;-41
2023/10/27 03:28:36;;;;;;;;;;;10.10;99.90;;;;;;5177249;27;19966;-41
2023/10/27 03:31:01;;;;;;;;;;;10.10;99.90;;;;;;5177030;27;20395;-41
2023/10/27 03:33:27;;;;;;;;;;;10.10;99.90;;;;;;5176864;27;19922;-41
2023/10/27 03:35:52;;;;;;;;;;;10.10;99.90;;;;;;5176900;27;20337;-41
2023/10/27 03:38:18;;;;;;;;;;;10.10;99.90;;;;;;5176922;27;20391;-41
2023/10/27 03:40:44;;;;;;;;;;;10.10;99.90;;;;;;5176783;27;19923;-41
2023/10/27 03:43:10;;;;;;;;;;;10.10;99.90;;;;;;5176845;27;19923;-41
2023/10/27 03:45:36;;;;;;;;;;;10.10;99.90;;;;;;5176794;27;20385;-41
2023/10/27 03:48:02;;;;;;;;;;;10.10;99.90;;;;;;5176641;27;19927;-41
2023/10/27 03:50:27;;;;;;;;;;;10.10;99.90;;;;;;5176581;27;20017;-40
2023/10/27 03:52:53;;;;;;;;;;;10.10;99.90;;;;;;5176432;27;20019;-41
2023/10/27 03:55:19;;;;;;;;;;;10.10;99.90;;;;;;5176514;27;19975;-41
2023/10/27 03:57:44;;;;;;;;;;;10.10;99.90;;;;;;5176642;27;19967;-41
2023/10/27 04:00:10;;;;;;;;;;;10.10;99.90;;;;;;5176758;27;19923;-41
2023/10/27 04:02:36;;;;;;;;;;;10.10;99.90;;;;;;5176468;27;20054;-41
2023/10/27 04:05:04;;;;;;;;;;;10.10;99.90;;;;;;5158159;27;19923;-41
2023/10/27 04:07:29;;;;;;;;;;;10.00;99.90;;;;;;5176331;27;19973;-41
2023/10/27 04:09:55;;;;;;;;;;;10.00;99.90;;;;;;5176243;27;19933;-41
2023/10/27 04:12:21;;;;;;;;;;;10.00;99.90;;;;;;5176387;27;19945;-41
2023/10/27 04:14:47;;;;;;;;;;;10.00;99.90;;;;;;5176144;27;20505;-41
2023/10/27 04:17:13;;;;;;;;;;;10.00;99.90;;;;;;5158179;27;19966;-41
2023/10/27 04:19:38;;;;;;;;;;;9.90;99.90;;;;;;5176458;27;19973;-42
2023/10/27 04:22:04;;;;;;;;;;;9.90;99.90;;;;;;5158012;27;19930;-42
2023/10/27 04:24:29;;;;;;;;;;;9.90;99.90;;;;;;5176302;27;19930;-41
2023/10/27 04:26:55;;;;;;;;;;;9.90;99.90;;;;;;5157646;27;19922;-41
2023/10/27 04:29:20;;;;;;;;;;;9.90;99.90;;;;;;5176623;27;19922;-41
2023/10/27 04:31:46;;;;;;;;;;;9.90;99.90;;;;;;5176234;27;20293;-41
2023/10/27 04:34:12;;;;;;;;;;;9.90;99.90;;;;;;5176271;27;19923;-41
2023/10/27 04:36:37;;;;;;;;;;;9.90;99.90;;;;;;5176224;27;19927;-41
2023/10/27 04:39:06;;;;;;;;;;;9.90;99.90;;;;;;5176038;27;19923;-41
2023/10/27 04:41:32;;;;;;;;;;;9.90;99.90;;;;;;5177809;27;20343;-41
2023/10/27 04:43:58;;;;;;;;;;;9.90;99.90;;;;;;5180166;27;20010;-41
2023/10/27 04:46:23;;;;;;;;;;;9.90;99.90;;;;;;5162086;27;20365;-41
2023/10/27 04:48:49;;;;;;;;;;;9.90;99.90;;;;;;5180048;27;20357;-41
2023/10/27 04:51:15;;;;;;;;;;;9.80;99.90;;;;;;5180049;27;20395;-41
2023/10/27 04:53:40;;;;;;;;;;;9.90;99.90;;;;;;5161087;27;19930;-41
2023/10/27 04:56:06;;;;;;;;;;;9.90;99.90;;;;;;5179439;27;20369;-41
2023/10/27 04:58:32;;;;;;;;;;;9.80;99.90;;;;;;5179998;27;19930;-41
2023/10/27 05:00:57;;;;;;;;;;;9.80;99.90;;;;;;5180014;27;19923;-41
2023/10/27 05:03:23;;;;;;;;;;;9.80;99.90;;;;;;5179722;27;20416;-41
2023/10/27 05:05:48;;;;;;;;;;;9.80;99.90;;;;;;5179818;27;19984;-41
2023/10/27 05:08:14;;;;;;;;;;;9.80;99.90;;;;;;5179549;27;20293;-41
2023/10/27 05:10:40;;;;;;;;;;;9.80;99.90;;;;;;5179321;27;19945;-41
2023/10/27 05:13:06;;;;;;;;;;;9.90;99.90;;;;;;5179429;27;19926;-42
2023/10/27 05:15:32;;;;;;;;;;;9.90;99.90;;;;;;5179531;27;20009;-41
2023/10/27 05:18:04;;;;;;;;;;;9.90;99.90;;;;;;5179564;27;19958;-42
2023/10/27 05:20:30;;;;;;;;;;;9.90;99.90;;;;;;5179389;27;19929;-41
2023/10/27 05:22:56;;;;;;;;;;;9.90;99.90;;;;;;5179232;27;20408;-41
2023/10/27 05:25:22;;;;;;;;;;;9.90;99.90;;;;;;5179431;27;19922;-41
2023/10/27 05:27:48;;;;;;;;;;;9.90;99.90;;;;;;5179337;27;19923;-41
2023/10/27 05:30:13;;;;;;;;;;;9.90;99.90;;;;;;5179133;27;19929;-41
2023/10/27 05:32:39;;;;;;;;;;;9.90;99.90;;;;;;5178930;27;19922;-41
2023/10/27 05:35:05;;;;;;;;;;;9.90;99.90;;;;;;5160677;27;19923;-41
2023/10/27 05:37:30;;;;;;;;;;;9.90;99.90;;;;;;5178808;27;19923;-42
2023/10/27 05:39:56;;;;;;;;;;;9.90;99.90;;;;;;5178839;27;20010;-41
2023/10/27 05:42:21;;;;;;;;;;;9.90;99.90;;;;;;5179292;27;20365;-42
2023/10/27 05:44:47;;;;;;;;;;;10.00;99.90;;;;;;5178881;27;19986;-41
2023/10/27 05:47:12;;;;;;;;;;;10.00;99.90;;;;;;5178890;27;19923;-41
2023/10/27 05:49:38;;;;;;;;;;;10.00;99.90;;;;;;5178735;27;19923;-41
2023/10/27 05:52:04;;;;;;;;;;;10.00;99.90;;;;;;5178447;27;19929;-41
2023/10/27 05:54:30;;;;;;;;;;;10.00;99.90;;;;;;5160056;27;21104;-41
2023/10/27 05:56:55;;;;;;;;;;;10.00;99.90;;;;;;5178829;27;19930;-41
2023/10/27 05:59:21;;;;;;;;;;;10.00;99.90;;;;;;5178583;27;19975;-41
2023/10/27 06:01:48;;;;;;;;;;;10.00;99.90;;;;;;5178645;27;19929;-41
2023/10/27 06:04:14;;;;;;;;;;;10.00;99.90;;;;;;5178454;27;19929;-41
2023/10/27 06:06:40;;;;;;;;;;;10.00;99.90;;;;;;5178406;27;19927;-42
2023/10/27 06:09:05;;;;;;;;;;;9.90;99.90;;;;;;5178258;27;19927;-41
2023/10/27 06:11:31;;;;;;;;;;;9.90;99.90;;;;;;5178652;27;20373;-41
2023/10/27 06:13:57;;;;;;;;;;;10.00;99.90;;;;;;5178583;27;19938;-41
2023/10/27 06:16:24;;;;;;;;;;;9.90;99.90;;;;;;5178155;27;20389;-41
2023/10/27 06:18:52;;;;;;;;;;;9.90;99.90;;;;;;5178155;27;20013;-41
2023/10/27 06:21:18;;;;;;;;;;;9.90;99.90;;;;;;5178116;27;19926;-41
2023/10/27 06:23:43;;;;;;;;;;;10.00;99.90;;;;;;5178265;27;19977;-42
2023/10/27 06:26:09;;;;;;;;;;;10.00;99.90;;;;;;5177806;27;19923;-41
2023/10/27 06:28:35;;;;;;;;;;;10.00;99.90;;;;;;5178263;27;19929;-41
2023/10/27 06:31:01;;;;;;;;;;;10.00;99.90;;;;;;5177909;27;20018;-41
2023/10/27 06:33:27;;;;;;;;;;;10.00;99.90;;;;;;5177846;27;19937;-41
2023/10/27 06:35:54;;;;;;;;;;;10.00;99.90;;;;;;5177649;27;19930;-42
2023/10/27 06:38:19;;;;;;;;;;;10.00;99.90;;;;;;5177875;27;19938;-42
2023/10/27 06:40:45;;;;;;;;;;;10.10;99.90;;;;;;5177721;27;19927;-41
2023/10/27 06:43:10;;;;;;;;;;;10.00;99.90;;;;;;5177558;27;19923;-43
2023/10/27 06:45:36;;;;;;;;;;;10.10;99.90;;;;;;5177300;27;19927;-41
2023/10/27 06:48:01;;;;;;;;;;;10.10;99.90;;;;;;5177705;27;19923;-41
2023/10/27 06:50:27;;;;;;;;;;;10.10;99.90;;;;;;5177447;27;19969;-42
2023/10/27 06:52:53;;;;;;;;;;;10.10;99.90;;;;;;5158986;27;19930;-41
2023/10/27 06:55:18;;;;;;;;;;;10.10;99.90;;;;;;5177209;27;19923;-42
2023/10/27 06:57:44;;;;;;;;;;;10.10;99.90;;;;;;5177484;27;20338;-42
2023/10/27 07:00:09;;;;;;;;;;;10.10;99.90;;;;;;5177208;27;19923;-42
2023/10/27 07:02:35;;;;;;;;;;;10.10;99.90;;;;;;5177234;27;20023;-40
2023/10/27 07:05:01;;;;;;;;;;;10.10;99.90;;;;;;5176608;27;20002;-42
2023/10/27 07:07:26;;;;;;;;;;;10.10;99.90;;;;;;5176992;27;19923;-42
2023/10/27 07:09:52;;;;;;;;;;;10.10;99.90;;;;;;5177270;27;19922;-42
2023/10/27 07:12:17;;;;;;;;;;;10.00;99.90;;;;;;5176983;27;19929;-42
2023/10/27 07:14:44;;;;;;;;;;;10.10;99.90;;;;;;5177074;27;19922;-42
2023/10/27 07:17:10;;;;;;;;;;;10.10;99.90;;;;;;5158899;27;19930;-42
2023/10/27 07:19:35;;;;;;;;;;;10.10;99.90;;;;;;5177079;27;19926;-42
2023/10/27 07:22:01;;;;;;;;;;;10.10;99.90;;;;;;5177344;27;19930;-42
2023/10/27 07:24:32;;;;;;;;;;;10.10;99.90;;;;;;5177013;27;20109;-42
2023/10/27 07:26:58;;;;;;;;;;;10.10;99.90;;;;;;5176836;27;19923;-42
2023/10/27 07:29:23;;;;;;;;;;;10.10;99.90;;;;;;5176900;27;20373;-42
2023/10/27 07:31:49;;;;;;;;;;;10.10;99.90;;;;;;5176541;27;19923;-42
2023/10/27 07:34:14;;;;;;;;;;;10.10;99.90;;;;;;5176936;27;19930;-42
2023/10/27 07:36:40;;;;;;;;;;;10.10;99.90;;;;;;5176895;27;20381;-42
2023/10/27 07:39:06;;;;;;;;;;;10.10;99.90;;;;;;5176746;27;19970;-42
2023/10/27 07:41:33;;;;;;;;;;;10.10;99.90;;;;;;5176825;27;19930;-41
2023/10/27 07:43:59;;;;;;;;;;;10.10;99.90;;;;;;5176677;27;19923;-41
2023/10/27 07:46:24;;;;;;;;;;;10.10;99.90;;;;;;5176641;27;19923;-42
2023/10/27 07:48:50;;;;;;;;;;;10.10;99.90;;;;;;5176492;27;19929;-42
2023/10/27 07:51:15;;;;;;;;;;;10.10;99.90;;;;;;5176723;27;19970;-41
2023/10/27 07:53:41;;;;;;;;;;;10.10;99.90;;;;;;5176618;27;19930;-42
2023/10/27 07:56:08;;;;;;;;;;;10.10;99.90;;;;;;5176560;27;19984;-41
2023/10/27 07:58:34;;;;;;;;;;;10.10;99.90;;;;;;5176642;27;19970;-42
2023/10/27 08:00:59;;;;;;;;;;;10.10;99.90;;;;;;5176585;27;19922;-41
2023/10/27 08:03:25;;;;;;;;;;;10.10;99.90;;;;;;5176465;27;19967;-43
2023/10/27 08:05:51;;;;;;;;;;;10.10;99.90;;;;;;5176230;27;20374;-41
2023/10/27 08:08:17;;;;;;;;;;;10.10;99.90;;;;;;5176813;27;20013;-42
2023/10/27 08:10:46;;;;;;;;;;;10.10;99.90;;;;;;5176487;27;19930;-42
2023/10/27 08:13:12;;;;;;;;;;;10.10;99.90;;;;;;5176297;27;19923;-41
2023/10/27 08:15:38;;;;;;;;;;;10.10;99.90;;;;;;5178294;27;19922;-42
2023/10/27 08:18:04;;;;;;;;;;;10.10;99.90;;;;;;5180552;27;19930;-42
2023/10/27 08:20:30;;;;;;;;;;;10.10;99.90;;;;;;5162415;27;20429;-41
2023/10/27 08:22:56;;;;;;;;;;;10.20;99.90;;;;;;5180893;27;20036;-41
2023/10/27 08:25:22;;;;;;;;;;;10.20;99.90;;;;;;5180475;27;20366;-41
2023/10/27 08:27:48;;;;;;;;;;;10.20;99.90;;;;;;5180289;27;20025;-41
2023/10/27 08:30:14;;;;;;;;;;;10.20;99.90;;;;;;5180274;27;19923;-41
2023/10/27 08:32:40;;;;;;;;;;;10.20;99.90;;;;;;5180143;27;19929;-42
2023/10/27 08:35:06;;;;;;;;;;;10.20;99.90;;;;;;5179979;27;19926;-41
2023/10/27 08:37:31;;;;;;;;;;;10.20;99.90;;;;;;5180212;27;19930;-41
2023/10/27 08:39:57;;;;;;;;;;;10.20;99.90;;;;;;5180159;27;19926;-41
2023/10/27 08:42:23;;;;;;;;;;;10.30;99.90;;;;;;5180349;27;19970;-41
2023/10/27 08:44:48;;;;;;;;;;;10.30;99.90;;;;;;5180098;27;19931;-42
2023/10/27 08:47:14;;;;;;;;;;;10.30;99.90;;;;;;5179868;27;20013;-42
2023/10/27 08:49:39;;;;;;;;;;;10.30;99.90;;;;;;5180095;27;19975;-41
2023/10/27 08:52:07;;;;;;;;;;;10.30;99.90;;;;;;5180219;27;19933;-41
2023/10/27 08:54:36;;;;;;;;;;;10.30;99.90;;;;;;5179814;27;20297;-41
2023/10/27 08:57:04;;;;;;;;;;;10.30;99.90;;;;;;5179745;27;20433;-41
2023/10/27 08:59:30;;;;;;;;;;;10.30;99.90;;;;;;5179792;27;20285;-41
2023/10/27 09:01:55;;;;;;;;;;;10.30;99.90;;;;;;5179818;27;19927;-41
2023/10/27 09:04:23;;;;;;;;;;;10.30;99.90;;;;;;5180121;27;19930;-41
2023/10/27 09:06:49;;;;;;;;;;;10.30;99.90;;;;;;5179522;27;19962;-41
2023/10/27 09:09:14;;;;;;;;;;;10.30;99.90;;;;;;5179602;27;20286;-41
2023/10/27 09:11:41;;;;;;;;;;;10.40;99.90;;;;;;5179254;27;19930;-42
2023/10/27 09:14:15;;;;;;;;;;;10.40;99.90;;;;;;5179445;27;19940;-41
2023/10/27 09:16:41;;;;;;;;;;;10.50;99.90;;;;;;5179130;27;19947;-41
2023/10/27 09:19:16;;;;;;;;;;;10.50;99.90;;;;;;5179645;27;19923;-41
2023/10/27 09:21:44;;;;;;;;;;;10.50;99.90;;;;;;5179558;27;19923;-41
2023/10/27 09:24:10;;;;;;;;;;;10.50;99.90;;;;;;5161028;27;19975;-41
2023/10/27 09:26:48;;;;;;;;;;;10.60;99.90;;;;;;5178521;27;20330;-41
2023/10/27 09:29:14;;;;;;;;;;;10.60;99.90;;;;;;5179047;27;19922;-41
2023/10/27 09:31:39;;;;;;;;;;;10.60;99.90;;;;;;5179130;27;19930;-41
2023/10/27 09:34:15;;;;;;;;;;;10.60;99.90;;;;;;5179235;27;19937;-41
2023/10/27 09:36:42;;;;;;;;;;;10.60;99.90;;;;;;5179091;27;19922;-41
2023/10/27 09:39:09;;;;;;;;;;;10.60;99.90;;;;;;5179166;27;19972;-42
2023/10/27 09:41:35;;;;;;;;;;;10.70;99.90;;;;;;5160289;27;20292;-42
2023/10/27 09:44:01;;;;;;;;;;;10.70;99.90;;;;;;5179042;27;19923;-42
2023/10/27 09:46:26;;;;;;;;;;;10.70;99.90;;;;;;5160721;27;19930;-41
2023/10/27 09:48:58;;;;;;;;;;;10.70;99.90;;;;;;5178931;27;19922;-41
2023/10/27 09:51:25;;;;;;;;;;;10.70;99.90;;;;;;5179103;27;19926;-41
2023/10/27 09:53:51;;;;;;;;;;;10.70;99.90;;;;;;5178647;27;19923;-41
2023/10/27 09:56:17;;;;;;;;;;;10.70;99.90;;;;;;5179080;27;19929;-41
2023/10/27 09:58:43;;;;;;;;;;;10.70;99.90;;;;;;5178727;27;19922;-41
2023/10/27 10:01:09;;;;;;;;;;;10.70;99.90;;;;;;5178698;27;19981;-41
2023/10/27 10:03:40;;;;;;;;;;;10.70;99.90;;;;;;5178672;27;20284;-41
2023/10/27 10:06:12;;;;;;;;;;;10.70;99.90;;;;;;5178563;27;19927;-41
2023/10/27 10:08:38;;;;;;;;;;;10.70;99.90;;;;;;5178381;27;20019;-42
2023/10/27 10:11:30;;;;;;;;;;;10.80;99.90;;;;;;5178353;27;20362;-41
2023/10/27 10:13:56;;;;;;;;;;;10.80;99.90;;;;;;5154757;27;19931;-42
2023/10/27 10:16:21;;;;;;;;;;;10.80;99.90;;;;;;5178390;27;19968;-42
2023/10/27 10:18:47;;;;;;;;;;;10.80;99.90;;;;;;5178330;27;19929;-42
2023/10/27 10:21:30;;;;;;;;;;;10.90;99.90;;;;;;5178057;27;19966;-41
2023/10/27 10:24:04;;;;;;;;;;;10.90;99.90;;;;;;5178296;27;20005;-41
2023/10/27 10:26:48;;;;;;;;;;;10.90;99.90;;;;;;5178237;27;19950;-41
2023/10/27 10:29:32;;;;;;;;;;;10.90;99.90;;;;;;5159639;27;20297;-41
2023/10/27 10:32:17;;;;;;;;;;;10.90;99.90;;;;;;5178109;27;19923;-41
2023/10/27 10:35:02;;;;;;;;;;;10.90;99.90;;;;;;5177867;27;19969;-41
2023/10/27 10:37:28;;;;;;;;;;;10.90;99.90;;;;;;5177809;27;19946;-42
2023/10/27 10:40:13;;;;;;;;;;;11.00;99.90;;;;;;5176893;27;19930;-41
2023/10/27 10:42:57;;;;;;;;;;;11.00;99.90;;;;;;5177876;27;19937;-42
2023/10/27 10:45:23;;;;;;;;;;;11.00;99.90;;;;;;5177978;27;20281;-42
2023/10/27 10:47:52;;;;;;;;;;;11.00;99.90;;;;;;5177722;27;20017;-42
2023/10/27 10:50:26;;;;;;;;;;;11.00;99.90;;;;;;5177690;27;19922;-41
2023/10/27 10:53:08;;;;;;;;;;;11.00;99.90;;;;;;5177610;27;19929;-41
2023/10/27 10:55:34;;;;;;;;;;;11.00;99.90;;;;;;5177325;27;19923;-42
2023/10/27 10:58:00;;;;;;;;;;;11.00;99.90;;;;;;5177426;27;20013;-41
2023/10/27 11:00:35;;;;;;;;;;;11.00;99.90;;;;;;5177562;27;19927;-42
2023/10/27 11:03:10;;;;;;;;;;;10.90;99.90;;;;;;5141461;27;19945;-42
2023/10/27 11:05:36;;;;;;;;;;;10.90;99.90;;;;;;5177296;27;19923;-43
2023/10/27 11:08:03;;;;;;;;;;;10.90;99.90;;;;;;5177319;27;19962;-42
2023/10/27 11:10:28;;;;;;;;;;;10.90;99.90;;;;;;5177303;27;19923;-42
2023/10/27 11:12:54;;;;;;;;;;;10.80;99.90;;;;;;5177199;27;19974;-41
2023/10/27 11:15:38;;;;;;;;;;;10.90;99.90;;;;;;5177066;27;19971;-41
2023/10/27 11:18:04;;;;;;;;;;;10.90;99.90;;;;;;5177219;27;20346;-42
2023/10/27 11:20:34;;;;;;;;;;;10.90;99.90;;;;;;5158514;27;19923;-42
2023/10/27 11:23:12;;;;;;;;;;;10.80;99.90;;;;;;5177235;27;19984;-41
2023/10/27 11:25:38;;;;;;;;;;;10.80;99.90;;;;;;5158847;27;19929;-41
2023/10/27 11:28:16;;;;;;;;;;;10.90;99.90;;;;;;5176831;27;19930;-42
2023/10/27 11:30:42;;;;;;;;;;;10.80;99.90;;;;;;5176840;27;20009;-42
2023/10/27 11:33:08;;;;;;;;;;;10.80;99.90;;;;;;5177156;27;20437;-41
2023/10/27 11:35:44;;;;;;;;;;;10.80;99.90;;;;;;5176787;27;19923;-41
2023/10/27 11:38:09;;;;;;;;;;;10.80;99.90;;;;;;5177054;27;20009;-41
2023/10/27 11:40:35;;;;;;;;;;;10.80;99.90;;;;;;5176560;27;20569;-41
2023/10/27 11:43:00;;;;;;;;;;;10.80;99.90;;;;;;5176826;27;19974;-41
2023/10/27 11:45:26;;;;;;;;;;;10.90;99.90;;;;;;5158454;27;19923;-42
2023/10/27 11:47:52;;;;;;;;;;;10.90;99.90;;;;;;5176482;27;19930;-41
2023/10/27 11:50:17;;;;;;;;;;;10.90;99.90;;;;;;5176372;27;19986;-41
2023/10/27 11:52:43;;;;;;;;;;;10.90;99.90;;;;;;5176424;27;19926;-41
2023/10/27 11:55:08;;;;;;;;;;;10.90;99.90;;;;;;5176343;27;19930;-41
2023/10/27 11:57:34;;;;;;;;;;;10.90;99.90;;;;;;5176487;27;19967;-42
2023/10/27 12:00:00;;;;;;;;;;;10.90;99.90;;;;;;5176233;27;19966;-41
2023/10/27 12:02:25;;;;;;;;;;;10.90;99.90;;;;;;5176406;27;19933;-42
2023/10/27 12:04:51;;;;;;;;;;;10.80;99.90;;;;;;5176359;27;19948;-41
2023/10/27 12:07:17;;;;;;;;;;;10.80;99.90;;;;;;5176508;27;19936;-41
2023/10/27 12:09:43;;;;;;;;;;;10.90;99.90;;;;;;5176095;27;19923;-42
2023/10/27 12:12:09;;;;;;;;;;;10.90;99.90;;;;;;5176369;27;19934;-42
2023/10/27 12:14:35;;;;;;;;;;;10.90;99.90;;;;;;5176313;27;19927;-41
2023/10/27 12:17:00;;;;;;;;;;;10.90;99.90;;;;;;5176424;27;19923;-41
2023/10/27 12:19:27;;;;;;;;;;;10.90;99.90;;;;;;5176432;27;20030;-42
2023/10/27 12:21:53;;;;;;;;;;;10.90;99.90;;;;;;5176280;27;19974;-41
2023/10/27 12:24:18;;;;;;;;;;;10.90;99.90;;;;;;5176044;27;19975;-42
2023/10/27 12:26:46;;;;;;;;;;;10.90;99.90;;;;;;5176223;27;19922;-41
2023/10/27 12:29:12;;;;;;;;;;;10.90;99.90;;;;;;5176303;27;20067;-41
2023/10/27 12:31:37;;;;;;;;;;;10.90;99.90;;;;;;5157797;27;19969;-41
2023/10/27 12:34:03;;;;;;;;;;;10.90;99.90;;;;;;5176383;27;19930;-41
2023/10/27 12:36:29;;;;;;;;;;;10.90;99.90;;;;;;5176059;27;20009;-42
2023/10/27 12:38:55;;;;;;;;;;;10.90;99.90;;;;;;5175974;27;19923;-41
2023/10/27 12:41:20;;;;;;;;;;;10.90;99.90;;;;;;5175965;27;20005;-42
2023/10/27 12:43:46;;;;;;;;;;;10.90;99.90;;;;;;5176142;27;20373;-41
2023/10/27 12:46:12;;;;;;;;;;;10.90;99.90;;;;;;5175885;27;19926;-41
2023/10/27 12:48:38;;;;;;;;;;;10.90;99.90;;;;;;5176080;27;20021;-41
2023/10/27 12:51:04;;;;;;;;;;;10.90;99.90;;;;;;5175974;27;19973;-41
2023/10/27 12:53:30;;;;;;;;;;;10.90;99.90;;;;;;5157225;27;19923;-42
2023/10/27 12:55:58;;;;;;;;;;;10.90;99.90;;;;;;5175612;27;19929;-41
2023/10/27 12:58:24;;;;;;;;;;;10.90;99.90;;;;;;5176333;27;20353;-41
2023/10/27 13:00:49;;;;;;;;;;;10.90;99.90;;;;;;5157323;27;20029;-41
2023/10/27 13:03:16;;;;;;;;;;;10.90;99.90;;;;;;5178903;27;19930;-41
2023/10/27 13:05:42;;;;;;;;;;;11.00;99.90;;;;;;5179825;27;19930;-42
2023/10/27 13:08:08;;;;;;;;;;;10.90;99.90;;;;;;5179567;27;19922;-42
2023/10/27 13:10:33;;;;;;;;;;;10.90;99.90;;;;;;5179668;27;19977;-42
2023/10/27 13:13:01;;;;;;;;;;;10.90;99.90;;;;;;5179601;27;20064;-41
2023/10/27 13:15:28;;;;;;;;;;;10.90;99.90;;;;;;5179648;27;19930;-41
2023/10/27 13:17:53;;;;;;;;;;;10.90;99.90;;;;;;5179579;27;19923;-42
2023/10/27 13:20:19;;;;;;;;;;;11.00;99.90;;;;;;5179539;27;20290;-42
2023/10/27 13:22:47;;;;;;;;;;;11.00;99.90;;;;;;5179247;27;19922;-42
2023/10/27 13:25:13;;;;;;;;;;;11.00;99.90;;;;;;5179397;27;19927;-41
2023/10/27 13:27:41;;;;;;;;;;;10.90;99.90;;;;;;5179322;27;19923;-42
2023/10/27 13:30:07;;;;;;;;;;;11.00;99.90;;;;;;5179291;27;19923;-41
2023/10/27 13:32:33;;;;;;;;;;;10.90;99.90;;;;;;5179231;27;19930;-42
2023/10/27 13:34:59;;;;;;;;;;;10.90;99.90;;;;;;5179403;27;19923;-41
2023/10/27 13:37:27;;;;;;;;;;;10.90;99.90;;;;;;5179202;27;20011;-42
2023/10/27 13:39:55;;;;;;;;;;;10.90;99.90;;;;;;5179154;27;19930;-42
2023/10/27 13:42:20;;;;;;;;;;;10.90;99.90;;;;;;5179134;27;20071;-42
2023/10/27 13:44:48;;;;;;;;;;;10.90;99.90;;;;;;5179102;27;19970;-41
2023/10/27 13:47:13;;;;;;;;;;;10.90;99.90;;;;;;5178819;27;19923;-41
2023/10/27 13:49:39;;;;;;;;;;;10.90;99.90;;;;;;5178794;27;19946;-42
2023/10/27 13:52:05;;;;;;;;;;;10.90;99.90;;;;;;5178670;27;20396;-42
2023/10/27 13:54:31;;;;;;;;;;;10.90;99.90;;;;;;5178822;27;19922;-41
2023/10/27 13:56:57;;;;;;;;;;;10.90;99.90;;;;;;5159863;27;19923;-42
2023/10/27 13:59:25;;;;;;;;;;;10.90;99.90;;;;;;5178769;27;19923;-41
2023/10/27 14:01:51;;;;;;;;;;;10.90;99.90;;;;;;5178610;27;20017;-42
2023/10/27 14:04:16;;;;;;;;;;;10.90;99.90;;;;;;5178767;27;19981;-42
2023/10/27 14:06:48;;;;;;;;;;;10.90;99.90;;;;;;5178387;27;19923;-41
2023/10/27 14:09:14;;;;;;;;;;;10.90;99.90;;;;;;5160515;27;19922;-43
2023/10/27 14:11:44;;;;;;;;;;;10.90;99.90;;;;;;5160425;27;19930;-42
2023/10/27 14:14:12;;;;;;;;;;;10.90;99.90;;;;;;5178480;27;19923;-42
2023/10/27 14:16:38;;;;;;;;;;;10.90;99.90;;;;;;5178428;27;19922;-42